createdAt,value
2023-04-02T00:00:17.029Z,99.99
2023-04-02T00:01:16.993Z,99.99
2023-04-02T00:02:16.991Z,99.99
2023-04-02T00:03:16.996Z,99.99
2023-04-02T00:04:17.022Z,99.99
2023-04-02T00:05:16.931Z,99.99
2023-04-02T00:06:17.013Z,99.99
2023-04-02T00:07:16.918Z,99.99
2023-04-02T00:08:16.944Z,99.99
2023-04-02T00:09:16.881Z,99.99
2023-04-02T00:10:16.914Z,99.99
2023-04-02T00:11:16.871Z,99.99
2023-04-02T00:12:16.911Z,99.99
2023-04-02T00:13:16.834Z,99.99
2023-04-02T00:14:16.849Z,99.99
2023-04-02T00:15:16.815Z,99.99
2023-04-02T00:16:16.874Z,99.99
2023-04-02T00:17:16.786Z,99.99
2023-04-02T00:18:16.864Z,99.99
2023-04-02T00:19:16.811Z,99.99
2023-04-02T00:20:16.759Z,99.99
2023-04-02T00:21:16.748Z,99.99
2023-04-02T00:22:16.827Z,99.99
2023-04-02T00:23:16.756Z,99.99
2023-04-02T00:24:16.727Z,99.99
2023-04-02T00:25:16.707Z,99.99
2023-04-02T00:26:16.712Z,99.99
2023-04-02T00:27:16.698Z,99.99
2023-04-02T00:28:16.683Z,99.99
2023-04-02T00:29:16.686Z,99.99
2023-04-02T00:30:16.682Z,99.99
2023-04-02T00:31:16.659Z,99.99
2023-04-02T00:32:16.744Z,99.99
2023-04-02T00:33:16.608Z,99.99
2023-04-02T00:34:16.640Z,99.99
2023-04-02T00:35:16.618Z,99.99
2023-04-02T00:36:16.624Z,99.99
2023-04-02T00:37:16.574Z,99.99
2023-04-02T00:38:16.561Z,99.99
2023-04-02T00:39:16.548Z,99.99
2023-04-02T00:40:16.529Z,99.99
2023-04-02T00:41:16.559Z,99.99
2023-04-02T00:42:16.557Z,99.99
2023-04-02T00:43:16.514Z,99.99
2023-04-02T00:44:16.492Z,99.99
2023-04-02T00:45:16.483Z,99.99
2023-04-02T00:46:16.555Z,99.99
2023-04-02T00:47:16.480Z,99.99
2023-04-02T00:48:16.511Z,99.99
2023-04-02T00:49:16.459Z,99.99
2023-04-02T00:50:16.445Z,99.99
2023-04-02T00:51:16.440Z,99.99
2023-04-02T00:52:16.400Z,99.99
2023-04-02T00:53:16.435Z,99.99
2023-04-02T00:54:16.391Z,99.99
2023-04-02T00:55:16.360Z,99.99
2023-04-02T00:56:16.368Z,99.99
2023-04-02T00:57:16.409Z,99.99
2023-04-02T00:58:16.469Z,99.99
2023-04-02T00:59:16.344Z,99.99
2023-04-02T01:00:16.322Z,99.99
2023-04-02T01:01:16.326Z,99.99
2023-04-02T01:02:16.347Z,99.99
2023-04-02T01:03:16.493Z,99.99
2023-04-02T01:04:16.324Z,99.99
2023-04-02T01:05:16.241Z,99.99
2023-04-02T01:06:16.235Z,99.99
2023-04-02T01:07:16.229Z,99.99
2023-04-02T01:08:16.215Z,99.99
2023-04-02T01:09:16.255Z,99.99
2023-04-02T01:10:16.215Z,99.99
2023-04-02T01:11:16.177Z,99.99
2023-04-02T01:12:16.211Z,99.99
2023-04-02T01:13:16.170Z,99.99
2023-04-02T01:14:16.253Z,99.99
2023-04-02T01:15:16.142Z,99.99
2023-04-02T01:16:16.224Z,99.99
2023-04-02T01:17:16.111Z,99.99
2023-04-02T01:18:16.113Z,99.99
2023-04-02T01:19:16.132Z,99.99
2023-04-02T01:20:16.123Z,99.99
2023-04-02T01:21:16.065Z,99.99
2023-04-02T01:22:16.076Z,99.99
2023-04-02T01:23:16.041Z,99.99
2023-04-02T01:24:16.050Z,99.99
2023-04-02T01:25:16.057Z,99.99
2023-04-02T01:26:16.013Z,99.99
2023-04-02T01:27:16.020Z,99.99
2023-04-02T01:28:16.010Z,99.99
2023-04-02T01:29:15.996Z,99.99
2023-04-02T01:30:16.006Z,99.99
2023-04-02T01:31:15.988Z,99.99
2023-04-02T01:32:15.966Z,99.99
2023-04-02T01:33:15.938Z,99.99
2023-04-02T01:34:15.929Z,99.99
2023-04-02T01:35:15.914Z,99.99
2023-04-02T01:36:15.949Z,99.99
2023-04-02T01:37:15.891Z,99.99
2023-04-02T01:38:15.890Z,99.99
2023-04-02T01:39:15.872Z,99.99
2023-04-02T01:40:15.853Z,99.99
2023-04-02T01:41:15.848Z,99.99
2023-04-02T01:42:15.868Z,99.99
2023-04-02T01:43:15.830Z,99.99
2023-04-02T01:44:16.325Z,99.99
2023-04-02T01:45:15.788Z,99.99
2023-04-02T01:46:15.795Z,99.99
2023-04-02T01:47:15.780Z,99.99
2023-04-02T01:48:15.768Z,99.99
2023-04-02T01:49:15.757Z,99.99
2023-04-02T01:50:15.776Z,99.99
2023-04-02T01:51:15.737Z,99.99
2023-04-02T01:52:15.744Z,99.99
2023-04-02T01:53:15.704Z,99.99
2023-04-02T01:54:15.709Z,99.99
2023-04-02T01:55:15.696Z,99.99
2023-04-02T01:56:15.711Z,99.99
2023-04-02T01:57:15.713Z,99.99
2023-04-02T01:58:15.662Z,99.99
2023-04-02T01:59:15.673Z,99.99
2023-04-02T02:00:15.672Z,99.99
2023-04-02T02:01:15.681Z,99.99
2023-04-02T02:02:15.715Z,99.99
2023-04-02T02:03:15.646Z,99.99
2023-04-02T02:04:15.800Z,99.99
2023-04-02T02:05:15.579Z,99.99
2023-04-02T02:06:15.607Z,99.99
2023-04-02T02:07:15.574Z,99.99
2023-04-02T02:08:15.553Z,99.99
2023-04-02T02:09:15.530Z,99.99
2023-04-02T02:10:15.515Z,99.99
2023-04-02T02:11:15.510Z,99.99
2023-04-02T02:12:15.561Z,99.99
2023-04-02T02:13:15.478Z,99.99
2023-04-02T02:14:15.486Z,99.99
2023-04-02T02:15:15.502Z,99.99
2023-04-02T02:16:15.519Z,99.99
2023-04-02T02:17:15.446Z,99.99
2023-04-02T02:18:15.492Z,99.99
2023-04-02T02:19:15.440Z,99.99
2023-04-02T02:20:15.407Z,99.99
2023-04-02T02:21:15.407Z,99.99
2023-04-02T02:22:15.415Z,99.99
2023-04-02T02:23:15.424Z,99.99
2023-04-02T02:24:15.427Z,99.99
2023-04-02T02:25:15.419Z,99.99
2023-04-02T02:26:15.364Z,99.99
2023-04-02T02:27:15.334Z,99.99
2023-04-02T02:28:15.325Z,99.99
2023-04-02T02:29:15.360Z,99.99
2023-04-02T02:30:15.351Z,99.99
2023-04-02T02:31:15.309Z,99.99
2023-04-02T02:32:15.317Z,99.99
2023-04-02T02:33:15.315Z,99.99
2023-04-02T02:34:15.249Z,99.99
2023-04-02T02:35:15.260Z,99.99
2023-04-02T02:36:15.479Z,99.99
2023-04-02T02:37:15.208Z,99.99
2023-04-02T02:38:15.206Z,99.99
2023-04-02T02:39:15.187Z,99.99
2023-04-02T02:40:15.228Z,99.99
2023-04-02T02:41:15.202Z,99.99
2023-04-02T02:42:15.189Z,99.99
2023-04-02T02:43:15.148Z,99.99
2023-04-02T02:44:15.154Z,99.99
2023-04-02T02:45:15.119Z,99.99
2023-04-02T02:46:15.210Z,99.99
2023-04-02T02:47:15.208Z,99.99
2023-04-02T02:48:15.089Z,99.99
2023-04-02T02:49:15.104Z,99.99
2023-04-02T02:50:15.078Z,99.99
2023-04-02T02:51:15.665Z,99.99
2023-04-02T02:52:15.071Z,99.99
2023-04-02T02:53:15.043Z,99.99
2023-04-02T02:54:15.036Z,99.99
2023-04-02T02:55:15.033Z,99.99
2023-04-02T02:56:15.737Z,99.99
2023-04-02T02:57:15.057Z,99.99
2023-04-02T02:58:14.988Z,99.99
2023-04-02T02:59:15.077Z,99.99
2023-04-02T03:00:14.952Z,99.99
2023-04-02T03:01:14.976Z,99.99
2023-04-02T03:02:15.005Z,99.99
2023-04-02T03:03:15.186Z,99.99
2023-04-02T03:04:15.035Z,99.99
2023-04-02T03:05:14.890Z,99.99
2023-04-02T03:06:14.895Z,99.99
2023-04-02T03:07:14.883Z,99.99
2023-04-02T03:08:14.910Z,99.99
2023-04-02T03:09:14.863Z,99.99
2023-04-02T03:10:14.837Z,99.99
2023-04-02T03:11:14.835Z,99.99
2023-04-02T03:12:14.851Z,99.99
2023-04-02T03:13:14.818Z,99.99
2023-04-02T03:14:14.830Z,99.99
2023-04-02T03:15:14.805Z,99.99
2023-04-02T03:16:14.869Z,99.99
2023-04-02T03:17:14.789Z,99.99
2023-04-02T03:18:14.762Z,99.99
2023-04-02T03:19:14.767Z,99.99
2023-04-02T03:20:14.732Z,99.99
2023-04-02T03:21:14.728Z,99.99
2023-04-02T03:22:14.727Z,99.99
2023-04-02T03:23:14.727Z,99.99
2023-04-02T03:24:14.694Z,99.99
2023-04-02T03:25:14.702Z,99.99
2023-04-02T03:26:14.671Z,99.99
2023-04-02T03:27:14.667Z,99.99
2023-04-02T03:28:14.671Z,99.99
2023-04-02T03:29:14.661Z,99.99
2023-04-02T03:30:14.635Z,99.99
2023-04-02T03:31:14.635Z,99.99
2023-04-02T03:32:14.588Z,99.99
2023-04-02T03:33:14.614Z,99.99
2023-04-02T03:34:14.632Z,99.99
2023-04-02T03:35:14.564Z,99.99
2023-04-02T03:36:14.636Z,99.99
2023-04-02T03:37:14.557Z,99.99
2023-04-02T03:38:14.544Z,99.99
2023-04-02T03:39:14.533Z,99.99
2023-04-02T03:40:14.509Z,99.99
2023-04-02T03:41:14.500Z,99.99
2023-04-02T03:42:14.493Z,99.99
2023-04-02T03:43:14.520Z,99.99
2023-04-02T03:44:14.486Z,99.99
2023-04-02T03:45:14.459Z,99.99
2023-04-02T03:46:14.551Z,99.99
2023-04-02T03:47:14.459Z,99.99
2023-04-02T03:48:14.436Z,99.99
2023-04-02T03:49:14.428Z,99.99
2023-04-02T03:50:14.753Z,99.99
2023-04-02T03:51:14.369Z,99.99
2023-04-02T03:52:14.551Z,99.99
2023-04-02T03:53:14.371Z,99.99
2023-04-02T03:54:14.350Z,99.99
2023-04-02T03:55:14.399Z,99.99
2023-04-02T03:56:14.334Z,99.99
2023-04-02T03:57:14.342Z,99.99
2023-04-02T03:58:14.301Z,99.99
2023-04-02T03:59:14.302Z,99.99
2023-04-02T04:00:14.320Z,99.99
2023-04-02T04:01:14.288Z,99.99
2023-04-02T04:02:14.272Z,99.99
2023-04-02T04:03:14.282Z,99.99
2023-04-02T04:04:14.317Z,99.99
2023-04-02T04:05:14.261Z,99.99
2023-04-02T04:06:14.216Z,99.99
2023-04-02T04:07:14.215Z,99.99
2023-04-02T04:08:14.213Z,99.99
2023-04-02T04:09:14.195Z,99.99
2023-04-02T04:10:14.212Z,99.99
2023-04-02T04:11:14.223Z,99.99
2023-04-02T04:12:14.150Z,99.99
2023-04-02T04:13:14.183Z,99.99
2023-04-02T04:14:14.124Z,99.99
2023-04-02T04:15:14.157Z,99.99
2023-04-02T04:16:14.155Z,99.99
2023-04-02T04:17:14.160Z,99.99
2023-04-02T04:18:14.067Z,99.99
2023-04-02T04:19:14.100Z,99.99
2023-04-02T04:20:14.097Z,99.99
2023-04-02T04:21:14.076Z,99.99
2023-04-02T04:22:14.028Z,99.99
2023-04-02T04:23:14.088Z,99.99
2023-04-02T04:24:14.006Z,99.99
2023-04-02T04:25:14.068Z,99.99
2023-04-02T04:26:14.003Z,99.99
2023-04-02T04:27:13.985Z,99.99
2023-04-02T04:28:13.980Z,99.99
2023-04-02T04:29:13.980Z,99.99
2023-04-02T04:30:13.948Z,99.99
2023-04-02T04:31:13.948Z,99.99
2023-04-02T04:32:14.022Z,99.99
2023-04-02T04:33:13.910Z,99.99
2023-04-02T04:34:13.925Z,99.99
2023-04-02T04:35:13.901Z,99.99
2023-04-02T04:36:13.925Z,99.99
2023-04-02T04:37:13.873Z,99.99
2023-04-02T04:38:13.845Z,99.99
2023-04-02T04:39:13.874Z,99.99
2023-04-02T04:40:13.857Z,99.99
2023-04-02T04:41:13.839Z,99.99
2023-04-02T04:42:13.834Z,99.99
2023-04-02T04:43:13.822Z,99.99
2023-04-02T04:44:13.776Z,99.99
2023-04-02T04:45:13.831Z,99.99
2023-04-02T04:46:13.860Z,99.99
2023-04-02T04:47:13.770Z,99.99
2023-04-02T04:48:13.758Z,99.99
2023-04-02T04:49:13.758Z,99.99
2023-04-02T04:50:13.749Z,99.99
2023-04-02T04:51:13.702Z,99.99
2023-04-02T04:52:13.698Z,99.99
2023-04-02T04:53:13.741Z,99.99
2023-04-02T04:54:13.703Z,99.99
2023-04-02T04:55:15.842Z,99.99
2023-04-02T04:56:19.348Z,99.99
2023-04-02T04:57:14.709Z,99.99
2023-04-02T04:58:13.623Z,99.99
2023-04-02T04:59:13.748Z,99.99
2023-04-02T05:00:13.625Z,99.99
2023-04-02T05:01:13.668Z,99.99
2023-04-02T05:02:13.590Z,99.99
2023-04-02T05:03:13.590Z,99.99
2023-04-02T05:04:13.580Z,99.99
2023-04-02T05:05:13.857Z,99.99
2023-04-02T05:06:13.604Z,99.99
2023-04-02T05:07:13.532Z,99.99
2023-04-02T05:08:13.525Z,99.99
2023-04-02T05:09:13.530Z,99.99
2023-04-02T05:10:13.516Z,99.99
2023-04-02T05:11:13.536Z,99.99
2023-04-02T05:12:13.470Z,99.99
2023-04-02T05:13:13.474Z,99.99
2023-04-02T05:14:13.445Z,99.99
2023-04-02T05:15:13.504Z,99.99
2023-04-02T05:16:13.542Z,99.99
2023-04-02T05:17:13.419Z,99.99
2023-04-02T05:18:13.434Z,99.99
2023-04-02T05:19:13.451Z,99.99
2023-04-02T05:20:13.390Z,99.99
2023-04-02T05:21:13.405Z,99.99
2023-04-02T05:22:13.372Z,99.99
2023-04-02T05:23:13.360Z,99.99
2023-04-02T05:24:13.349Z,99.99
2023-04-02T05:25:14.084Z,99.99
2023-04-02T05:26:13.324Z,99.99
2023-04-02T05:27:13.306Z,99.99
2023-04-02T05:28:13.326Z,99.99
2023-04-02T05:29:13.292Z,99.99
2023-04-02T05:30:13.291Z,99.99
2023-04-02T05:31:13.360Z,99.99
2023-04-02T05:32:13.258Z,99.99
2023-04-02T05:33:13.240Z,99.99
2023-04-02T05:34:13.240Z,99.99
2023-04-02T05:35:13.210Z,99.99
2023-04-02T05:36:13.265Z,99.99
2023-04-02T05:37:13.246Z,99.99
2023-04-02T05:38:13.180Z,99.99
2023-04-02T05:39:13.187Z,99.99
2023-04-02T05:40:13.158Z,99.99
2023-04-02T05:41:13.178Z,99.99
2023-04-02T05:42:13.161Z,99.99
2023-04-02T05:43:13.134Z,99.99
2023-04-02T05:44:13.119Z,99.99
2023-04-02T05:45:13.160Z,99.99
2023-04-02T05:46:13.125Z,99.99
2023-04-02T05:47:13.150Z,99.99
2023-04-02T05:48:13.066Z,99.99
2023-04-02T05:49:13.106Z,99.99
2023-04-02T05:50:13.062Z,99.99
2023-04-02T05:51:13.063Z,99.99
2023-04-02T05:52:13.030Z,99.99
2023-04-02T05:53:13.080Z,99.99
2023-04-02T05:54:12.989Z,99.99
2023-04-02T05:55:13.006Z,99.99
2023-04-02T05:56:12.970Z,99.99
2023-04-02T05:57:13.002Z,99.99
2023-04-02T05:58:34.436Z,99.99
2023-04-02T05:59:13.970Z,99.99
2023-04-02T06:00:12.977Z,99.99
2023-04-02T06:01:12.922Z,99.99
2023-04-02T06:02:12.949Z,99.99
2023-04-02T06:03:12.992Z,99.99
2023-04-02T06:04:12.969Z,99.99
2023-04-02T06:05:13.270Z,99.99
2023-04-02T06:06:14.630Z,99.99
2023-04-02T06:07:12.886Z,99.99
2023-04-02T06:08:12.851Z,99.99
2023-04-02T06:09:12.874Z,99.99
2023-04-02T06:10:12.844Z,99.99
2023-04-02T06:11:12.872Z,99.99
2023-04-02T06:12:12.797Z,99.99
2023-04-02T06:13:12.805Z,99.99
2023-04-02T06:14:13.596Z,99.99
2023-04-02T06:15:12.797Z,99.99
2023-04-02T06:16:12.827Z,99.99
2023-04-02T06:17:12.772Z,99.99
2023-04-02T06:18:12.732Z,99.99
2023-04-02T06:19:12.747Z,99.99
2023-04-02T06:20:12.722Z,99.99
2023-04-02T06:21:12.725Z,99.99
2023-04-02T06:22:12.743Z,99.99
2023-04-02T06:23:12.722Z,99.99
2023-04-02T06:24:12.658Z,99.99
2023-04-02T06:25:12.667Z,99.99
2023-04-02T06:26:12.644Z,99.99
2023-04-02T06:27:12.707Z,99.99
2023-04-02T06:28:12.624Z,99.99
2023-04-02T06:29:12.644Z,99.99
2023-04-02T06:30:12.600Z,99.99
2023-04-02T06:31:12.608Z,99.99
2023-04-02T06:32:12.593Z,99.99
2023-04-02T06:33:12.589Z,99.99
2023-04-02T06:34:12.576Z,99.99
2023-04-02T06:35:12.568Z,99.99
2023-04-02T06:36:12.598Z,99.99
2023-04-02T06:37:12.594Z,99.99
2023-04-02T06:38:12.532Z,99.99
2023-04-02T06:39:12.526Z,99.99
2023-04-02T06:40:12.510Z,99.99
2023-04-02T06:41:12.510Z,99.99
2023-04-02T06:42:12.501Z,99.99
2023-04-02T06:43:12.480Z,99.99
2023-04-02T06:44:12.462Z,99.99
2023-04-02T06:45:12.490Z,99.99
2023-04-02T06:46:12.436Z,99.99
2023-04-02T06:47:12.485Z,99.99
2023-04-02T06:48:12.492Z,99.99
2023-04-02T06:49:12.399Z,99.99
2023-04-02T06:50:12.388Z,99.99
2023-04-02T06:51:12.388Z,99.99
2023-04-02T06:52:12.368Z,99.99
2023-04-02T06:53:12.360Z,99.99
2023-04-02T06:54:12.361Z,99.99
2023-04-02T06:55:12.407Z,99.99
2023-04-02T06:56:12.295Z,99.99
2023-04-02T06:57:12.356Z,99.99
2023-04-02T06:58:12.301Z,99.99
2023-04-02T06:59:12.277Z,99.99
2023-04-02T07:00:12.333Z,99.99
2023-04-02T07:01:12.274Z,99.99
2023-04-02T07:02:12.266Z,99.99
2023-04-02T07:03:12.295Z,99.99
2023-04-02T07:04:12.215Z,99.99
2023-04-02T07:05:12.256Z,99.99
2023-04-02T07:06:12.211Z,99.99
2023-04-02T07:07:12.211Z,99.99
2023-04-02T07:08:12.166Z,99.99
2023-04-02T07:09:12.210Z,99.99
2023-04-02T07:10:12.163Z,99.99
2023-04-02T07:11:12.152Z,99.99
2023-04-02T07:12:12.144Z,99.99
2023-04-02T07:13:12.133Z,99.99
2023-04-02T07:14:12.120Z,99.99
2023-04-02T07:15:12.082Z,99.99
2023-04-02T07:16:12.233Z,99.99
2023-04-02T07:17:12.051Z,99.99
2023-04-02T07:18:12.106Z,99.65
2023-04-02T07:19:12.050Z,99.44
2023-04-02T07:20:12.072Z,99.13
2023-04-02T07:21:12.026Z,99.13
2023-04-02T07:22:12.049Z,99.03
2023-04-02T07:23:12.029Z,99.13
2023-04-02T07:24:11.993Z,99.03
2023-04-02T07:25:11.979Z,99.24
2023-04-02T07:26:12.023Z,99.24
2023-04-02T07:27:11.969Z,99.44
2023-04-02T07:28:11.946Z,99.34
2023-04-02T07:29:11.986Z,98.61
2023-04-02T07:30:11.950Z,98.51
2023-04-02T07:31:11.934Z,98.72
2023-04-02T07:32:11.917Z,99.09
2023-04-02T07:33:11.922Z,98.78
2023-04-02T07:34:12.268Z,98.88
2023-04-02T07:35:11.881Z,98.57
2023-04-02T07:36:11.954Z,98.82
2023-04-02T07:37:11.857Z,98.47
2023-04-02T07:38:11.870Z,98.68
2023-04-02T07:39:11.807Z,99.19
2023-04-02T07:40:11.838Z,99.19
2023-04-02T07:41:11.805Z,99.30
2023-04-02T07:42:11.793Z,99.09
2023-04-02T07:43:11.875Z,98.88
2023-04-02T07:44:11.792Z,98.57
2023-04-02T07:45:11.772Z,98.88
2023-04-02T07:46:11.837Z,98.16
2023-04-02T07:47:11.765Z,97.53
2023-04-02T07:48:11.743Z,97.22
2023-04-02T07:49:11.707Z,97.22
2023-04-02T07:50:11.738Z,97.85
2023-04-02T07:51:11.669Z,98.05
2023-04-02T07:52:11.690Z,97.64
2023-04-02T07:53:11.672Z,97.85
2023-04-02T07:54:11.678Z,97.95
2023-04-02T07:55:11.634Z,98.26
2023-04-02T07:56:11.650Z,98.42
2023-04-02T07:57:11.683Z,98.11
2023-04-02T07:58:11.635Z,97.80
2023-04-02T07:59:11.638Z,97.64
2023-04-02T08:00:11.598Z,97.33
2023-04-02T08:01:11.598Z,96.97
2023-04-02T08:02:11.599Z,96.76
2023-04-02T08:03:11.679Z,97.38
2023-04-02T08:04:11.631Z,97.38
2023-04-02T08:05:11.538Z,97.38
2023-04-02T08:06:11.522Z,97.38
2023-04-02T08:07:11.606Z,96.97
2023-04-02T08:08:11.505Z,96.97
2023-04-02T08:09:11.496Z,96.76
2023-04-02T08:10:11.489Z,96.76
2023-04-02T08:11:11.472Z,96.66
2023-04-02T08:12:11.523Z,96.45
2023-04-02T08:13:11.447Z,96.76
2023-04-02T08:14:11.454Z,96.86
2023-04-02T08:15:11.669Z,96.66
2023-04-02T08:16:11.497Z,96.34
2023-04-02T08:17:11.391Z,96.34
2023-04-02T08:18:11.454Z,96.34
2023-04-02T08:19:11.376Z,96.66
2023-04-02T08:20:11.397Z,96.24
2023-04-02T08:21:11.380Z,96.30
2023-04-02T08:22:11.364Z,96.41
2023-04-02T08:23:11.326Z,96.92
2023-04-02T08:24:11.401Z,96.20
2023-04-02T08:25:11.330Z,96.20
2023-04-02T08:26:11.321Z,95.99
2023-04-02T08:27:11.298Z,96.09
2023-04-02T08:28:11.276Z,95.99
2023-04-02T08:29:11.250Z,94.95
2023-04-02T08:30:11.255Z,94.54
2023-04-02T08:31:11.290Z,94.33
2023-04-02T08:32:11.216Z,94.64
2023-04-02T08:33:11.222Z,95.53
2023-04-02T08:34:11.221Z,94.95
2023-04-02T08:35:11.181Z,94.29
2023-04-02T08:36:11.243Z,94.49
2023-04-02T08:37:11.175Z,94.70
2023-04-02T08:38:11.174Z,94.91
2023-04-02T08:39:11.161Z,95.22
2023-04-02T08:40:11.183Z,95.32
2023-04-02T08:41:11.119Z,95.43
2023-04-02T08:42:11.160Z,95.32
2023-04-02T08:43:11.111Z,94.81
2023-04-02T08:44:11.118Z,94.87
2023-04-02T08:45:23.588Z,94.87
2023-04-02T08:46:12.201Z,94.97
2023-04-02T08:47:11.080Z,94.76
2023-04-02T08:48:11.034Z,95.07
2023-04-02T08:49:11.091Z,94.97
2023-04-02T08:50:11.137Z,94.97
2023-04-02T08:51:11.013Z,94.14
2023-04-02T08:52:11.046Z,93.83
2023-04-02T08:53:10.995Z,93.83
2023-04-02T08:54:10.996Z,93.41
2023-04-02T08:55:10.977Z,93.00
2023-04-02T08:56:10.988Z,93.52
2023-04-02T08:57:11.122Z,93.83
2023-04-02T08:58:10.953Z,93.21
2023-04-02T08:59:10.956Z,93.21
2023-04-02T09:00:10.937Z,93.83
2023-04-02T09:01:10.911Z,94.56
2023-04-02T09:02:10.909Z,94.41
2023-04-02T09:03:11.360Z,93.89
2023-04-02T09:04:10.886Z,93.48
2023-04-02T09:05:10.950Z,92.85
2023-04-02T09:06:10.864Z,93.06
2023-04-02T09:07:10.836Z,92.76
2023-04-02T09:08:10.820Z,92.65
2023-04-02T09:09:10.802Z,92.03
2023-04-02T09:10:10.836Z,90.99
2023-04-02T09:11:10.791Z,90.47
2023-04-02T09:12:10.796Z,90.20
2023-04-02T09:13:10.785Z,90.20
2023-04-02T09:14:11.112Z,90.31
2023-04-02T09:15:10.981Z,90.62
2023-04-02T09:16:10.854Z,90.83
2023-04-02T09:17:10.732Z,90.52
2023-04-02T09:18:10.750Z,89.48
2023-04-02T09:19:10.685Z,90.00
2023-04-02T09:20:10.939Z,90.93
2023-04-02T09:21:10.674Z,91.61
2023-04-02T09:22:10.690Z,92.34
2023-04-02T09:23:10.654Z,92.76
2023-04-02T09:24:10.716Z,91.20
2023-04-02T09:25:10.674Z,91.30
2023-04-02T09:26:10.626Z,91.67
2023-04-02T09:27:10.662Z,92.09
2023-04-02T09:28:10.610Z,91.78
2023-04-02T09:29:10.632Z,90.84
2023-04-02T09:30:10.621Z,89.09
2023-04-02T09:31:10.597Z,89.67
2023-04-02T09:32:10.581Z,89.25
2023-04-02T09:33:10.572Z,89.46
2023-04-02T09:34:10.556Z,89.25
2023-04-02T09:35:22.327Z,89.04
2023-04-02T09:36:11.566Z,89.25
2023-04-02T09:37:10.496Z,89.04
2023-04-02T09:38:10.511Z,88.64
2023-04-02T09:39:10.508Z,89.01
2023-04-02T09:40:10.496Z,88.39
2023-04-02T09:41:10.513Z,87.76
2023-04-02T09:42:10.461Z,87.56
2023-04-02T09:43:10.476Z,87.46
2023-04-02T09:44:10.524Z,87.25
2023-04-02T09:45:10.410Z,88.18
2023-04-02T09:46:10.481Z,88.07
2023-04-02T09:47:10.386Z,87.56
2023-04-02T09:48:10.433Z,88.39
2023-04-02T09:49:10.386Z,87.35
2023-04-02T09:50:10.365Z,87.04
2023-04-02T09:51:10.384Z,87.25
2023-04-02T09:52:10.339Z,86.21
2023-04-02T09:53:10.339Z,87.46
2023-04-02T09:54:10.327Z,87.25
2023-04-02T09:55:10.320Z,87.73
2023-04-02T09:56:10.340Z,87.62
2023-04-02T09:57:10.308Z,86.69
2023-04-02T09:58:10.294Z,86.38
2023-04-02T09:59:10.266Z,86.49
2023-04-02T10:00:18.313Z,86.18
2023-04-02T10:01:11.318Z,86.59
2023-04-02T10:02:10.255Z,86.34
2023-04-02T10:03:10.207Z,86.44
2023-04-02T10:04:10.239Z,85.93
2023-04-02T10:05:10.170Z,85.72
2023-04-02T10:06:10.247Z,85.72
2023-04-02T10:07:10.168Z,86.13
2023-04-02T10:08:10.151Z,85.41
2023-04-02T10:09:10.130Z,85.83
2023-04-02T10:10:10.138Z,86.82
2023-04-02T10:11:10.119Z,85.99
2023-04-02T10:12:10.126Z,87.34
2023-04-02T10:13:10.078Z,86.51
2023-04-02T10:14:10.102Z,85.75
2023-04-02T10:15:10.065Z,86.36
2023-04-02T10:16:10.149Z,86.36
2023-04-02T10:17:10.060Z,86.32
2023-04-02T10:18:10.120Z,87.56
2023-04-02T10:19:10.015Z,85.67
2023-04-02T10:20:10.014Z,86.08
2023-04-02T10:21:10.040Z,85.73
2023-04-02T10:22:09.991Z,85.73
2023-04-02T10:23:09.980Z,85.22
2023-04-02T10:24:09.983Z,84.08
2023-04-02T10:25:09.985Z,82.43
2023-04-02T10:26:09.984Z,82.02
2023-04-02T10:27:10.050Z,83.26
2023-04-02T10:28:09.907Z,81.23
2023-04-02T10:29:09.901Z,81.54
2023-04-02T10:30:10.007Z,81.44
2023-04-02T10:31:09.927Z,82.26
2023-04-02T10:32:09.916Z,82.78
2023-04-02T10:33:09.893Z,83.19
2023-04-02T10:34:09.856Z,83.09
2023-04-02T10:35:09.848Z,82.98
2023-04-02T10:36:09.851Z,82.89
2023-04-02T10:37:09.805Z,82.98
2023-04-02T10:38:09.850Z,82.68
2023-04-02T10:39:09.789Z,83.67
2023-04-02T10:40:09.785Z,84.29
2023-04-02T10:41:09.763Z,84.19
2023-04-02T10:42:09.791Z,82.12
2023-04-02T10:43:09.751Z,81.40
2023-04-02T10:44:19.510Z,81.71
2023-04-02T10:45:10.734Z,80.47
2023-04-02T10:46:09.772Z,79.24
2023-04-02T10:47:09.723Z,80.06
2023-04-02T10:48:09.733Z,82.23
2023-04-02T10:49:09.718Z,81.51
2023-04-02T10:50:09.713Z,79.79
2023-04-02T10:51:09.661Z,78.86
2023-04-02T10:52:09.655Z,80.00
2023-04-02T10:53:09.647Z,81.44
2023-04-02T10:54:09.643Z,79.69
2023-04-02T10:55:09.619Z,80.93
2023-04-02T10:56:09.619Z,81.96
2023-04-02T10:57:09.673Z,81.13
2023-04-02T10:58:09.607Z,80.72
2023-04-02T10:59:09.584Z,80.82
2023-04-02T11:00:09.607Z,82.26
2023-04-02T11:01:09.604Z,82.02
2023-04-02T11:02:09.560Z,82.12
2023-04-02T11:03:09.607Z,81.61
2023-04-02T11:04:09.569Z,80.37
2023-04-02T11:05:09.498Z,79.55
2023-04-02T11:06:10.801Z,79.34
2023-04-02T11:07:14.494Z,79.55
2023-04-02T11:08:10.473Z,79.65
2023-04-02T11:09:09.498Z,80.37
2023-04-02T11:10:09.436Z,80.54
2023-04-02T11:11:10.160Z,80.85
2023-04-02T11:12:09.435Z,79.93
2023-04-02T11:13:09.429Z,79.37
2023-04-02T11:14:09.401Z,79.37
2023-04-02T11:15:09.386Z,77.97
2023-04-02T11:16:09.475Z,77.62
2023-04-02T11:17:09.371Z,78.75
2023-04-02T11:18:09.404Z,80.77
2023-04-02T11:19:09.360Z,82.21
2023-04-02T11:20:09.351Z,79.19
2023-04-02T11:21:09.333Z,79.50
2023-04-02T11:22:09.349Z,79.77
2023-04-02T11:23:09.309Z,80.19
2023-04-02T11:24:09.280Z,78.30
2023-04-02T11:25:09.287Z,78.88
2023-04-02T11:26:09.281Z,78.23
2023-04-02T11:27:09.267Z,79.28
2023-04-02T11:28:09.241Z,77.20
2023-04-02T11:29:09.234Z,74.94
2023-04-02T11:30:09.276Z,72.48
2023-04-02T11:31:09.260Z,72.00
2023-04-02T11:32:09.193Z,74.53
2023-04-02T11:33:09.225Z,74.73
2023-04-02T11:34:09.196Z,73.30
2023-04-02T11:35:09.213Z,75.73
2023-04-02T11:36:09.187Z,73.06
2023-04-02T11:37:09.150Z,72.96
2023-04-02T11:38:09.116Z,73.85
2023-04-02T11:39:17.117Z,71.90
2023-04-02T11:40:10.224Z,70.43
2023-04-02T11:41:09.100Z,71.77
2023-04-02T11:42:09.076Z,72.34
2023-04-02T11:43:09.112Z,73.44
2023-04-02T11:44:09.051Z,72.72
2023-04-02T11:45:09.066Z,70.34
2023-04-02T11:46:09.121Z,70.03
2023-04-02T11:47:09.056Z,70.23
2023-04-02T11:48:09.013Z,69.18
2023-04-02T11:49:09.021Z,70.30
2023-04-02T11:50:09.006Z,69.07
2023-04-02T11:51:09.008Z,70.71
2023-04-02T11:52:12.363Z,69.07
2023-04-02T11:53:08.963Z,69.28
2023-04-02T11:54:08.948Z,67.88
2023-04-02T11:55:08.995Z,69.21
2023-04-02T11:56:08.955Z,68.73
2023-04-02T11:57:09.031Z,69.85
2023-04-02T11:58:08.907Z,71.08
2023-04-02T11:59:08.918Z,69.79
2023-04-02T12:00:08.987Z,69.61
2023-04-02T12:01:08.884Z,70.36
2023-04-02T12:02:08.978Z,70.06
2023-04-02T12:03:08.908Z,71.11
2023-04-02T12:04:08.877Z,71.01
2023-04-02T12:05:08.880Z,70.91
2023-04-02T12:06:08.973Z,70.09
2023-04-02T12:07:08.837Z,69.06
2023-04-02T12:08:08.785Z,71.35
2023-04-02T12:09:08.783Z,71.86
2023-04-02T12:10:08.848Z,71.48
2023-04-02T12:11:08.781Z,71.01
2023-04-02T12:12:08.879Z,71.21
2023-04-02T12:13:08.747Z,71.11
2023-04-02T12:14:08.737Z,72.44
2023-04-02T12:15:08.740Z,72.06
2023-04-02T12:16:08.694Z,70.84
2023-04-02T12:17:10.010Z,71.76
2023-04-02T12:18:08.710Z,72.31
2023-04-02T12:19:08.677Z,72.51
2023-04-02T12:20:08.674Z,72.72
2023-04-02T12:21:08.668Z,72.20
2023-04-02T12:22:08.639Z,74.36
2023-04-02T12:23:08.636Z,73.33
2023-04-02T12:24:08.608Z,73.44
2023-04-02T12:25:08.595Z,73.85
2023-04-02T12:26:08.621Z,75.29
2023-04-02T12:27:08.578Z,74.98
2023-04-02T12:28:08.610Z,76.17
2023-04-02T12:29:08.552Z,74.94
2023-04-02T12:30:08.554Z,73.16
2023-04-02T12:31:08.568Z,72.96
2023-04-02T12:32:08.604Z,73.57
2023-04-02T12:33:08.556Z,73.85
2023-04-02T12:34:08.528Z,73.19
2023-04-02T12:35:08.506Z,73.91
2023-04-02T12:36:08.525Z,71.62
2023-04-02T12:37:08.480Z,72.82
2023-04-02T12:38:08.447Z,75.07
2023-04-02T12:39:08.440Z,73.30
2023-04-02T12:40:08.510Z,70.43
2023-04-02T12:41:08.445Z,70.53
2023-04-02T12:42:08.417Z,70.33
2023-04-02T12:43:08.410Z,70.50
2023-04-02T12:44:08.370Z,69.17
2023-04-02T12:45:08.469Z,71.39
2023-04-02T12:46:08.372Z,71.25
2023-04-02T12:47:08.355Z,68.19
2023-04-02T12:48:08.356Z,67.19
2023-04-02T12:49:08.388Z,65.36
2023-04-02T12:50:08.323Z,67.60
2023-04-02T12:51:08.295Z,66.17
2023-04-02T12:52:08.303Z,66.51